Effy N — VRFI9 — position and weather

sailwx.info

Track history (hours):
 
Tides and Currents Weather Stations Pressure Air Temp Water Temp Dewpoint Dewpoint Depression Visibility Wind Speed Wind Dir Waves Ship Positions

Effy N

Last reported at 2018-Apr-07 07:08 UTC. Time now 2018-Apr-26 11:31 UTC.
Position N 30°22' E 032°21'.
Warning: this ship's position is 19 days out of date.

Length 190 m; draft 11.2 m.

Type: Ship. MMSI: 477534200.

Date/timePositionNaut miles runAvg speedWind from/ knotsBaromVisibWave heightAir tempDewpointWater temp
2018-Apr-07 07:08N 30°22' E 032°21'0 0.1
2018-Apr-07 06:44N 30°22' E 032°21'0 0.1
2018-Apr-07 06:01N 30°22' E 032°21'0 0.0
2018-Apr-07 06:00N 30°22' E 032°21'2 4.6
2018-Apr-07 05:30N 30°24' E 032°22'5 9.0
2018-Apr-07 05:00N 30°28' E 032°21'5 9.2
2018-Apr-07 04:30N 30°33' E 032°19'4 7.6
2018-Apr-07 04:00N 30°36' E 032°19'5 9.1
2018-Apr-07 03:30N 30°41' E 032°20'5 9.3
2018-Apr-07 03:00N 30°45' E 032°19'5 9.4
2018-Apr-07 02:30N 30°50' E 032°19'6 9.3
2018-Apr-07 01:55N 30°56' E 032°19'10 9.5
2018-Apr-07 00:48N 31°06' E 032°19'4 9.6
2018-Apr-07 00:21N 31°10' E 032°18'4 8.5
2018-Apr-06 23:54N 31°14' E 032°18'2 5.3
2018-Apr-06 23:30N 31°16' E 032°19'0 0.3
2018-Apr-06 22:48N 31°16' E 032°20'0 0.0
2018-Apr-06 22:18N 31°16' E 032°20'0 0.0
2018-Apr-06 21:54N 31°16' E 032°20'0 0.0
2018-Apr-06 21:23N 31°16' E 032°20'0 0.0
2018-Apr-06 20:59N 31°16' E 032°20'0 0.0
2018-Apr-06 20:30N 31°16' E 032°20'0 0.0
2018-Apr-06 19:59N 31°16' E 032°20'0 0.0
2018-Apr-06 19:29N 31°16' E 032°20'0 0.0
2018-Apr-06 18:59N 31°16' E 032°20'0 0.0
2018-Apr-06 18:29N 31°16' E 032°20'0 0.0
2018-Apr-06 17:56N 31°16' E 032°20'0 0.0
2018-Apr-06 17:29N 31°16' E 032°20'0 0.0
2018-Apr-06 16:59N 31°16' E 032°20'0 0.0
2018-Apr-06 16:29N 31°16' E 032°20'0 0.0
2018-Apr-06 15:59N 31°16' E 032°20'0 0.0
2018-Apr-06 15:29N 31°16' E 032°20'0 0.0
2018-Apr-06 14:59N 31°16' E 032°20'0 0.0
2018-Apr-06 14:30N 31°16' E 032°20'0 0.0
2018-Apr-06 14:00N 31°16' E 032°19'0 0.0
2018-Apr-06 13:30N 31°16' E 032°19'0 0.7
2018-Apr-06 13:00N 31°16' E 032°19'3 5.2
2018-Apr-06 12:30N 31°18' E 032°21'3 5.7
2018-Apr-06 11:59N 31°21' E 032°21'1 1.7
2018-Apr-06 11:06N 31°22' E 032°20'0 0.1
2018-Apr-06 10:58N 31°22' E 032°20'0 0.0
2018-Apr-06 10:28N 31°22' E 032°20'0 0.0
2018-Apr-06 09:58N 31°22' E 032°20'0 0.0
2018-Apr-06 09:31N 31°22' E 032°20'0 0.0
2018-Apr-06 09:00N 31°22' E 032°20'0 0.0
2018-Apr-06 08:31N 31°22' E 032°20'0 0.0
2018-Apr-06 08:01N 31°22' E 032°20'0 0.0
2018-Apr-06 07:29N 31°22' E 032°20'0 0.0
2018-Apr-06 07:00N 31°22' E 032°20'0 0.0
2018-Apr-06 06:30N 31°22' E 032°20'0 0.1
2018-Apr-06 06:00N 31°22' E 032°20'0 0.4
2018-Apr-06 05:30N 31°22' E 032°20'1 2.4
2018-Apr-06 05:00N 31°23' E 032°19'6 7.3
2018-Apr-06 04:13N 31°28' E 032°16'5 8.3
2018-Apr-06 03:36N 31°32' E 032°12'1 9.1
2018-Apr-06 03:31N 31°33' E 032°11'5 9.1
2018-Apr-06 02:59N 31°36' E 032°07'5 9.6
2018-Apr-06 02:30N 31°39' E 032°04'611.0
2018-Apr-06 02:00N 31°43' E 031°59'612.0
2018-Apr-06 01:30N 31°47' E 031°54'812.1
2018-Apr-06 00:51N 31°51' E 031°46'412.1
2018-Apr-06 00:30N 31°54' E 031°42'612.2
2018-Apr-06 00:01N 31°57' E 031°36'2212.2
2018-Apr-05 22:12N 32°12' E 031°17'912.1
2018-Apr-05 21:27N 32°19' E 031°10'612.2
2018-Apr-05 20:59N 32°24' E 031°06'712.4
2018-Apr-05 20:26N 32°29' E 031°01'612.7
2018-Apr-05 19:57N 32°33' E 030°56'612.9
2018-Apr-05 19:31N 32°38' E 030°51'4912.2
2018-Apr-05 15:31N 33°14' E 030°13'012.2
2018-Apr-05 15:30N 33°14' E 030°13'612.3
2018-Apr-05 15:00N 33°19' E 030°08'612.3
2018-Apr-05 14:30N 33°23' E 030°03'6012.2
2018-Apr-05 09:34N 34°09' E 029°15'112.0
2018-Apr-05 09:30N 34°09' E 029°15'25512.2
2018-Apr-04 12:38N 37°27' E 025°56'211.8
2018-Apr-04 12:30N 37°29' E 025°55'611.6
2018-Apr-04 12:00N 37°34' E 025°52'711.8
2018-Apr-04 11:25N 37°41' E 025°49'512.0
2018-Apr-04 11:00N 37°45' E 025°47'12012.1
2018-Apr-04 01:05N 39°45' E 025°45'312.1
2018-Apr-04 00:52N 39°48' E 025°45'411.0
2018-Apr-04 00:30N 39°51' E 025°47'4 7.5
2018-Apr-03 23:59N 39°55' E 025°50'0 0.4
2018-Apr-03 23:29N 39°55' E 025°50'1 1.0
2018-Apr-03 22:52N 39°55' E 025°51'3 5.7
2018-Apr-03 22:21N 39°57' E 025°54'411.3
2018-Apr-03 22:00N 39°59' E 025°57'611.7
2018-Apr-03 21:30N 40°01' E 026°05'  
2018-Mar-31 14:24N 44°21' E 037°14'512.6
2018-Mar-31 13:59N 44°23' E 037°21'612.7
2018-Mar-31 13:30N 44°26' E 037°29'612.1
2018-Mar-31 13:00N 44°29' E 037°36'611.7
2018-Mar-31 12:30N 44°33' E 037°42'510.7
2018-Mar-31 12:01N 44°37' E 037°47'4 8.1
2018-Mar-31 11:30N 44°40' E 037°50'1 2.7
2018-Mar-31 10:58N 44°41' E 037°51'0 0.0
2018-Mar-31 10:28N 44°41' E 037°51'0 0.0
2018-Mar-31 09:58N 44°41' E 037°51'0 0.0
2018-Mar-31 09:28N 44°41' E 037°51'0 0.0
2018-Mar-31 08:58N 44°41' E 037°51'0 0.0
2018-Mar-31 08:28N 44°41' E 037°51'0 0.0
2018-Mar-31 07:58N 44°41' E 037°51'0 0.1
2018-Mar-31 07:28N 44°41' E 037°51'0 0.0
2018-Mar-31 06:58N 44°41' E 037°51'0 0.1
2018-Mar-31 06:28N 44°41' E 037°51'0 0.1
2018-Mar-31 05:58N 44°41' E 037°51'0 0.0
2018-Mar-31 05:28N 44°41' E 037°51'0 0.0
2018-Mar-31 04:58N 44°41' E 037°51'0 0.0
2018-Mar-31 04:28N 44°41' E 037°51'0 0.0
2018-Mar-31 03:58N 44°41' E 037°51'0 0.1
2018-Mar-31 03:28N 44°41' E 037°51'0 0.2
2018-Mar-31 02:58N 44°41' E 037°51'0 0.1
2018-Mar-31 02:28N 44°41' E 037°51'0 0.1
2018-Mar-31 01:58N 44°41' E 037°51'0 0.1
2018-Mar-31 01:28N 44°41' E 037°51'0 0.1
2018-Mar-31 01:00N 44°41' E 037°51'2 3.2
2018-Mar-31 00:30N 44°42' E 037°49'2 4.0
2018-Mar-31 00:01N 44°44' E 037°47'0 0.3
2018-Mar-30 23:30N 44°44' E 037°47'0 0.0
2018-Mar-30 23:00N 44°44' E 037°47'0 0.0
2018-Mar-30 22:30N 44°44' E 037°47'0 0.0
2018-Mar-30 21:57N 44°44' E 037°47'0 0.0
2018-Mar-30 21:30N 44°44' E 037°47'0 0.0
2018-Mar-30 21:00N 44°44' E 037°47'0 0.0
2018-Mar-30 20:30N 44°44' E 037°47'0 0.0
2018-Mar-30 20:00N 44°44' E 037°47'0 0.0
2018-Mar-30 19:30N 44°44' E 037°47'0 0.0
2018-Mar-30 19:00N 44°44' E 037°47'0 0.0
2018-Mar-30 18:30N 44°44' E 037°47'0 0.0
2018-Mar-30 18:00N 44°44' E 037°47'0 0.0
2018-Mar-30 17:30N 44°44' E 037°47'0 0.0
2018-Mar-30 16:54N 44°44' E 037°47'0 0.0
2018-Mar-30 16:30N 44°44' E 037°47'0 0.0
2018-Mar-30 16:00N 44°44' E 037°47'0 0.0
2018-Mar-30 15:30N 44°44' E 037°47'0 0.0
2018-Mar-30 15:00N 44°44' E 037°47'0 0.0
2018-Mar-30 14:30N 44°44' E 037°47'0 0.0
2018-Mar-30 14:00N 44°44' E 037°47'0 0.0
2018-Mar-30 13:30N 44°44' E 037°47'0 0.0
2018-Mar-30 13:00N 44°44' E 037°47'0 0.0
2018-Mar-30 12:30N 44°44' E 037°47'0 0.0
2018-Mar-30 11:57N 44°44' E 037°47'0 0.0
2018-Mar-30 11:30N 44°44' E 037°47'0 0.0
2018-Mar-30 11:00N 44°44' E 037°47'0 0.0
2018-Mar-30 10:30N 44°44' E 037°47'0 0.0
2018-Mar-30 10:00N 44°44' E 037°47'0 0.0
2018-Mar-30 09:30N 44°44' E 037°47'0 0.0
2018-Mar-30 09:00N 44°44' E 037°47'0 0.0
2018-Mar-30 08:30N 44°44' E 037°47'0 0.0
2018-Mar-30 08:00N 44°44' E 037°47'0 0.0
2018-Mar-30 07:30N 44°44' E 037°47'0 0.0
2018-Mar-30 06:57N 44°44' E 037°47'0 0.0
2018-Mar-30 06:30N 44°44' E 037°47'0 0.0
2018-Mar-30 06:00N 44°44' E 037°47'0 0.0
2018-Mar-30 05:30N 44°44' E 037°47'0 0.0
2018-Mar-30 05:00N 44°44' E 037°47'0 0.0
2018-Mar-30 04:30N 44°44' E 037°47'0 0.0
2018-Mar-30 04:00N 44°44' E 037°47'0 0.0
2018-Mar-30 03:30N 44°44' E 037°47'0 0.0
2018-Mar-30 03:00N 44°44' E 037°47'0 0.0
2018-Mar-30 02:30N 44°44' E 037°47'0 0.0
2018-Mar-30 02:00N 44°44' E 037°47'0 0.0
2018-Mar-30 01:30N 44°44' E 037°47'0 0.0
2018-Mar-30 01:00N 44°44' E 037°47'0 0.0
2018-Mar-30 00:30N 44°44' E 037°47'0 0.0
2018-Mar-30 00:00N 44°44' E 037°47'0 0.0
2018-Mar-29 23:30N 44°44' E 037°47'0 0.0
2018-Mar-29 23:00N 44°44' E 037°47'0 0.0
2018-Mar-29 22:30N 44°44' E 037°47'0 0.0
2018-Mar-29 22:00N 44°44' E 037°47'0 0.0
2018-Mar-29 21:30N 44°44' E 037°47'0 0.0
2018-Mar-29 21:00N 44°44' E 037°47'0 0.0
2018-Mar-29 20:30N 44°44' E 037°47'0 0.0
2018-Mar-29 20:00N 44°44' E 037°47'0 0.0
2018-Mar-29 19:30N 44°44' E 037°47'0 0.0
2018-Mar-29 19:00N 44°44' E 037°47'0 0.0
2018-Mar-29 18:30N 44°44' E 037°47'0 0.0
2018-Mar-29 18:00N 44°44' E 037°47'0 0.0
2018-Mar-29 17:30N 44°44' E 037°47'0 0.0
2018-Mar-29 17:00N 44°44' E 037°47'0 0.0
2018-Mar-29 16:24N 44°44' E 037°47'0 0.0
2018-Mar-29 16:00N 44°44' E 037°47'0 0.0
2018-Mar-29 15:30N 44°44' E 037°47'0 0.0
2018-Mar-29 15:00N 44°44' E 037°47'0 0.0
2018-Mar-29 14:30N 44°44' E 037°47'0 0.0
2018-Mar-29 14:00N 44°44' E 037°47'0 0.0
2018-Mar-29 13:30N 44°44' E 037°47'0 0.0
2018-Mar-29 13:00N 44°44' E 037°47'0 0.0
2018-Mar-29 12:30N 44°44' E 037°47'0 0.0
2018-Mar-29 12:00N 44°44' E 037°47'0 0.0
2018-Mar-29 11:30N 44°44' E 037°47'0 0.0
2018-Mar-29 11:00N 44°44' E 037°47'0 0.0
2018-Mar-29 10:30N 44°44' E 037°47'0 0.0
2018-Mar-29 10:00N 44°44' E 037°47'0 0.0
2018-Mar-29 09:30N 44°44' E 037°47'0 0.0
2018-Mar-29 09:00N 44°44' E 037°47'0 0.0
2018-Mar-29 08:30N 44°44' E 037°47'0 0.0
2018-Mar-29 08:00N 44°44' E 037°47'0 0.0
2018-Mar-29 07:30N 44°44' E 037°47'0 0.0
2018-Mar-29 07:00N 44°44' E 037°47'0 0.0
2018-Mar-29 06:30N 44°44' E 037°47'0 0.0
2018-Mar-29 06:00N 44°44' E 037°47'0 0.0
2018-Mar-29 05:30N 44°44' E 037°47'0 0.0
2018-Mar-29 05:00N 44°44' E 037°47'0 0.0
2018-Mar-29 03:51N 44°44' E 037°47'0 0.0
2018-Mar-29 03:30N 44°44' E 037°47'0 0.0
2018-Mar-29 03:00N 44°44' E 037°47'0 0.0
2018-Mar-29 02:30N 44°44' E 037°47'0 0.0
2018-Mar-29 02:00N 44°44' E 037°47'0 0.0
2018-Mar-29 01:30N 44°44' E 037°47'0 0.0
2018-Mar-29 01:00N 44°44' E 037°47'0 0.0
2018-Mar-29 00:30N 44°44' E 037°47'0 0.0
2018-Mar-29 00:00N 44°44' E 037°47'0 0.0
2018-Mar-28 23:30N 44°44' E 037°47'0 0.0
2018-Mar-28 23:00N 44°44' E 037°47'0 0.0
2018-Mar-28 22:30N 44°44' E 037°47'0 0.0
2018-Mar-28 22:00N 44°44' E 037°47'0 0.0
2018-Mar-28 21:30N 44°44' E 037°47'0 0.0
2018-Mar-28 21:00N 44°44' E 037°47'0 0.0
2018-Mar-28 20:30N 44°44' E 037°47'0 0.0
2018-Mar-28 20:00N 44°44' E 037°47'0 0.0
2018-Mar-28 19:30N 44°44' E 037°47'0 0.0
2018-Mar-28 19:00N 44°44' E 037°47'0 0.0
2018-Mar-28 18:30N 44°44' E 037°47'0 0.0
2018-Mar-28 18:00N 44°44' E 037°47'0 0.0
2018-Mar-28 17:30N 44°44' E 037°47'0 0.0
2018-Mar-28 17:00N 44°44' E 037°47'0 0.0
2018-Mar-28 16:30N 44°44' E 037°47'0 0.0
2018-Mar-28 16:00N 44°44' E 037°47'0 0.0
2018-Mar-28 15:30N 44°44' E 037°47'0 0.1
2018-Mar-28 15:00N 44°44' E 037°47'2 3.8
2018-Mar-28 14:30N 44°42' E 037°49'4 7.5
2018-Mar-28 14:00N 44°39' E 037°51'3 6.7
2018-Mar-28 13:30N 44°35' E 037°52'1 1.9
2018-Mar-28 13:00N 44°35' E 037°52'1 2.2
2018-Mar-28 12:30N 44°34' E 037°53'2 4.4
2018-Mar-28 12:00N 44°32' E 037°55'4 8.5
2018-Mar-28 11:30N 44°29' E 037°59'610.9
2018-Mar-28 10:59N 44°25' E 038°05'1119.7
2018-Mar-28 10:27N 44°36' E 038°01'0 0.1
2018-Mar-28 09:55N 44°35' E 038°01'0 0.0
2018-Mar-28 09:28N 44°36' E 038°01'0 0.0
2018-Mar-28 08:49N 44°35' E 038°01'0 0.0
2018-Mar-28 08:25N 44°36' E 038°01'1432.1
2018-Mar-28 08:00N 44°22' E 038°06'1420.5
2018-Mar-28 07:20N 44°36' E 038°01'  
Track history (hours):
 
Tides and Currents Weather Stations Pressure Air Temp Water Temp Dewpoint Dewpoint Depression Visibility Wind Speed Wind Dir Waves Ship Positions

Effy N

Last reported at 2018-Apr-07 07:08 UTC. Time now 2018-Apr-26 11:31 UTC.
Position N 30°22' E 032°21'.
Warning: this ship's position is 19 days out of date.

Length 190 m; draft 11.2 m.

Type: Ship. MMSI: 477534200.

Date/timePositionNaut miles runAvg speedWind from/ knotsBaromVisibWave heightAir tempDewpointWater temp
2018-Apr-07 07:08N 30°22' E 032°21'0 0.1
2018-Apr-07 06:44N 30°22' E 032°21'0 0.1
2018-Apr-07 06:01N 30°22' E 032°21'0 0.0
2018-Apr-07 06:00N 30°22' E 032°21'2 4.6
2018-Apr-07 05:30N 30°24' E 032°22'5 9.0
2018-Apr-07 05:00N 30°28' E 032°21'5 9.2
2018-Apr-07 04:30N 30°33' E 032°19'4 7.6
2018-Apr-07 04:00N 30°36' E 032°19'5 9.1
2018-Apr-07 03:30N 30°41' E 032°20'5 9.3
2018-Apr-07 03:00N 30°45' E 032°19'5 9.4
2018-Apr-07 02:30N 30°50' E 032°19'6 9.3
2018-Apr-07 01:55N 30°56' E 032°19'10 9.5
2018-Apr-07 00:48N 31°06' E 032°19'4 9.6
2018-Apr-07 00:21N 31°10' E 032°18'4 8.5
2018-Apr-06 23:54N 31°14' E 032°18'2 5.3
2018-Apr-06 23:30N 31°16' E 032°19'0 0.3
2018-Apr-06 22:48N 31°16' E 032°20'0 0.0
2018-Apr-06 22:18N 31°16' E 032°20'0 0.0
2018-Apr-06 21:54N 31°16' E 032°20'0 0.0
2018-Apr-06 21:23N 31°16' E 032°20'0 0.0
2018-Apr-06 20:59N 31°16' E 032°20'0 0.0
2018-Apr-06 20:30N 31°16' E 032°20'0 0.0
2018-Apr-06 19:59N 31°16' E 032°20'0 0.0
2018-Apr-06 19:29N 31°16' E 032°20'0 0.0
2018-Apr-06 18:59N 31°16' E 032°20'0 0.0
2018-Apr-06 18:29N 31°16' E 032°20'0 0.0
2018-Apr-06 17:56N 31°16' E 032°20'0 0.0
2018-Apr-06 17:29N 31°16' E 032°20'0 0.0
2018-Apr-06 16:59N 31°16' E 032°20'0 0.0
2018-Apr-06 16:29N 31°16' E 032°20'0 0.0
2018-Apr-06 15:59N 31°16' E 032°20'0 0.0
2018-Apr-06 15:29N 31°16' E 032°20'0 0.0
2018-Apr-06 14:59N 31°16' E 032°20'0 0.0
2018-Apr-06 14:30N 31°16' E 032°20'0 0.0
2018-Apr-06 14:00N 31°16' E 032°19'0 0.0
2018-Apr-06 13:30N 31°16' E 032°19'0 0.7
2018-Apr-06 13:00N 31°16' E 032°19'3 5.2
2018-Apr-06 12:30N 31°18' E 032°21'3 5.7
2018-Apr-06 11:59N 31°21' E 032°21'1 1.7
2018-Apr-06 11:06N 31°22' E 032°20'0 0.1
2018-Apr-06 10:58N 31°22' E 032°20'0 0.0
2018-Apr-06 10:28N 31°22' E 032°20'0 0.0
2018-Apr-06 09:58N 31°22' E 032°20'0 0.0
2018-Apr-06 09:31N 31°22' E 032°20'0 0.0
2018-Apr-06 09:00N 31°22' E 032°20'0 0.0
2018-Apr-06 08:31N 31°22' E 032°20'0 0.0
2018-Apr-06 08:01N 31°22' E 032°20'0 0.0
2018-Apr-06 07:29N 31°22' E 032°20'0 0.0
2018-Apr-06 07:00N 31°22' E 032°20'0 0.0
2018-Apr-06 06:30N 31°22' E 032°20'0 0.1
2018-Apr-06 06:00N 31°22' E 032°20'0 0.4
2018-Apr-06 05:30N 31°22' E 032°20'1 2.4
2018-Apr-06 05:00N 31°23' E 032°19'6 7.3
2018-Apr-06 04:13N 31°28' E 032°16'5 8.3
2018-Apr-06 03:36N 31°32' E 032°12'1 9.1
2018-Apr-06 03:31N 31°33' E 032°11'5 9.1
2018-Apr-06 02:59N 31°36' E 032°07'5 9.6
2018-Apr-06 02:30N 31°39' E 032°04'611.0
2018-Apr-06 02:00N 31°43' E 031°59'612.0
2018-Apr-06 01:30N 31°47' E 031°54'812.1
2018-Apr-06 00:51N 31°51' E 031°46'412.1
2018-Apr-06 00:30N 31°54' E 031°42'612.2
2018-Apr-06 00:01N 31°57' E 031°36'2212.2
2018-Apr-05 22:12N 32°12' E 031°17'912.1
2018-Apr-05 21:27N 32°19' E 031°10'612.2
2018-Apr-05 20:59N 32°24' E 031°06'712.4
2018-Apr-05 20:26N 32°29' E 031°01'612.7
2018-Apr-05 19:57N 32°33' E 030°56'612.9
2018-Apr-05 19:31N 32°38' E 030°51'4912.2
2018-Apr-05 15:31N 33°14' E 030°13'012.2
2018-Apr-05 15:30N 33°14' E 030°13'612.3
2018-Apr-05 15:00N 33°19' E 030°08'612.3
2018-Apr-05 14:30N 33°23' E 030°03'6012.2
2018-Apr-05 09:34N 34°09' E 029°15'112.0
2018-Apr-05 09:30N 34°09' E 029°15'25512.2
2018-Apr-04 12:38N 37°27' E 025°56'211.8
2018-Apr-04 12:30N 37°29' E 025°55'611.6
2018-Apr-04 12:00N 37°34' E 025°52'711.8
2018-Apr-04 11:25N 37°41' E 025°49'512.0
2018-Apr-04 11:00N 37°45' E 025°47'12012.1
2018-Apr-04 01:05N 39°45' E 025°45'312.1
2018-Apr-04 00:52N 39°48' E 025°45'411.0
2018-Apr-04 00:30N 39°51' E 025°47'4 7.5
2018-Apr-03 23:59N 39°55' E 025°50'0 0.4
2018-Apr-03 23:29N 39°55' E 025°50'1 1.0
2018-Apr-03 22:52N 39°55' E 025°51'3 5.7
2018-Apr-03 22:21N 39°57' E 025°54'411.3
2018-Apr-03 22:00N 39°59' E 025°57'611.7
2018-Apr-03 21:30N 40°01' E 026°05'  
2018-Mar-31 14:24N 44°21' E 037°14'512.6
2018-Mar-31 13:59N 44°23' E 037°21'612.7
2018-Mar-31 13:30N 44°26' E 037°29'612.1
2018-Mar-31 13:00N 44°29' E 037°36'611.7
2018-Mar-31 12:30N 44°33' E 037°42'510.7
2018-Mar-31 12:01N 44°37' E 037°47'4 8.1
2018-Mar-31 11:30N 44°40' E 037°50'1 2.7
2018-Mar-31 10:58N 44°41' E 037°51'0 0.0
2018-Mar-31 10:28N 44°41' E 037°51'0 0.0
2018-Mar-31 09:58N 44°41' E 037°51'0 0.0
2018-Mar-31 09:28N 44°41' E 037°51'0 0.0
2018-Mar-31 08:58N 44°41' E 037°51'0 0.0
2018-Mar-31 08:28N 44°41' E 037°51'0 0.0
2018-Mar-31 07:58N 44°41' E 037°51'0 0.1
2018-Mar-31 07:28N 44°41' E 037°51'0 0.0
2018-Mar-31 06:58N 44°41' E 037°51'0 0.1
2018-Mar-31 06:28N 44°41' E 037°51'0 0.1
2018-Mar-31 05:58N 44°41' E 037°51'0 0.0
2018-Mar-31 05:28N 44°41' E 037°51'0 0.0
2018-Mar-31 04:58N 44°41' E 037°51'0 0.0
2018-Mar-31 04:28N 44°41' E 037°51'0 0.0
2018-Mar-31 03:58N 44°41' E 037°51'0 0.1
2018-Mar-31 03:28N 44°41' E 037°51'0 0.2
2018-Mar-31 02:58N 44°41' E 037°51'0 0.1
2018-Mar-31 02:28N 44°41' E 037°51'0 0.1
2018-Mar-31 01:58N 44°41' E 037°51'0 0.1
2018-Mar-31 01:28N 44°41' E 037°51'0 0.1
2018-Mar-31 01:00N 44°41' E 037°51'2 3.2
2018-Mar-31 00:30N 44°42' E 037°49'2 4.0
2018-Mar-31 00:01N 44°44' E 037°47'0 0.3
2018-Mar-30 23:30N 44°44' E 037°47'0 0.0
2018-Mar-30 23:00N 44°44' E 037°47'0 0.0
2018-Mar-30 22:30N 44°44' E 037°47'0 0.0
2018-Mar-30 21:57N 44°44' E 037°47'0 0.0
2018-Mar-30 21:30N 44°44' E 037°47'0 0.0
2018-Mar-30 21:00N 44°44' E 037°47'0 0.0
2018-Mar-30 20:30N 44°44' E 037°47'0 0.0
2018-Mar-30 20:00N 44°44' E 037°47'0 0.0
2018-Mar-30 19:30N 44°44' E 037°47'0 0.0
2018-Mar-30 19:00N 44°44' E 037°47'0 0.0
2018-Mar-30 18:30N 44°44' E 037°47'0 0.0
2018-Mar-30 18:00N 44°44' E 037°47'0 0.0
2018-Mar-30 17:30N 44°44' E 037°47'0 0.0
2018-Mar-30 16:54N 44°44' E 037°47'0 0.0
2018-Mar-30 16:30N 44°44' E 037°47'0 0.0
2018-Mar-30 16:00N 44°44' E 037°47'0 0.0
2018-Mar-30 15:30N 44°44' E 037°47'0 0.0
2018-Mar-30 15:00N 44°44' E 037°47'0 0.0
2018-Mar-30 14:30N 44°44' E 037°47'0 0.0
2018-Mar-30 14:00N 44°44' E 037°47'0 0.0
2018-Mar-30 13:30N 44°44' E 037°47'0 0.0
2018-Mar-30 13:00N 44°44' E 037°47'0 0.0
2018-Mar-30 12:30N 44°44' E 037°47'0 0.0
2018-Mar-30 11:57N 44°44' E 037°47'0 0.0
2018-Mar-30 11:30N 44°44' E 037°47'0 0.0
2018-Mar-30 11:00N 44°44' E 037°47'0 0.0
2018-Mar-30 10:30N 44°44' E 037°47'0 0.0
2018-Mar-30 10:00N 44°44' E 037°47'0 0.0
2018-Mar-30 09:30N 44°44' E 037°47'0 0.0
2018-Mar-30 09:00N 44°44' E 037°47'0 0.0
2018-Mar-30 08:30N 44°44' E 037°47'0 0.0
2018-Mar-30 08:00N 44°44' E 037°47'0 0.0
2018-Mar-30 07:30N 44°44' E 037°47'0 0.0
2018-Mar-30 06:57N 44°44' E 037°47'0 0.0
2018-Mar-30 06:30N 44°44' E 037°47'0 0.0
2018-Mar-30 06:00N 44°44' E 037°47'0 0.0
2018-Mar-30 05:30N 44°44' E 037°47'0 0.0
2018-Mar-30 05:00N 44°44' E 037°47'0 0.0
2018-Mar-30 04:30N 44°44' E 037°47'0 0.0
2018-Mar-30 04:00N 44°44' E 037°47'0 0.0
2018-Mar-30 03:30N 44°44' E 037°47'0 0.0
2018-Mar-30 03:00N 44°44' E 037°47'0 0.0
2018-Mar-30 02:30N 44°44' E 037°47'0 0.0
2018-Mar-30 02:00N 44°44' E 037°47'0 0.0
2018-Mar-30 01:30N 44°44' E 037°47'0 0.0
2018-Mar-30 01:00N 44°44' E 037°47'0 0.0
2018-Mar-30 00:30N 44°44' E 037°47'0 0.0
2018-Mar-30 00:00N 44°44' E 037°47'0 0.0
2018-Mar-29 23:30N 44°44' E 037°47'0 0.0
2018-Mar-29 23:00N 44°44' E 037°47'0 0.0
2018-Mar-29 22:30N 44°44' E 037°47'0 0.0
2018-Mar-29 22:00N 44°44' E 037°47'0 0.0
2018-Mar-29 21:30N 44°44' E 037°47'0 0.0
2018-Mar-29 21:00N 44°44' E 037°47'0 0.0
2018-Mar-29 20:30N 44°44' E 037°47'0 0.0
2018-Mar-29 20:00N 44°44' E 037°47'0 0.0
2018-Mar-29 19:30N 44°44' E 037°47'0 0.0
2018-Mar-29 19:00N 44°44' E 037°47'0 0.0
2018-Mar-29 18:30N 44°44' E 037°47'0 0.0
2018-Mar-29 18:00N 44°44' E 037°47'0 0.0
2018-Mar-29 17:30N 44°44' E 037°47'0 0.0
2018-Mar-29 17:00N 44°44' E 037°47'0 0.0
2018-Mar-29 16:24N 44°44' E 037°47'0 0.0
2018-Mar-29 16:00N 44°44' E 037°47'0 0.0
2018-Mar-29 15:30N 44°44' E 037°47'0 0.0
2018-Mar-29 15:00N 44°44' E 037°47'0 0.0
2018-Mar-29 14:30N 44°44' E 037°47'0 0.0
2018-Mar-29 14:00N 44°44' E 037°47'0 0.0
2018-Mar-29 13:30N 44°44' E 037°47'0 0.0
2018-Mar-29 13:00N 44°44' E 037°47'0 0.0
2018-Mar-29 12:30N 44°44' E 037°47'0 0.0
2018-Mar-29 12:00N 44°44' E 037°47'0 0.0
2018-Mar-29 11:30N 44°44' E 037°47'0 0.0
2018-Mar-29 11:00N 44°44' E 037°47'0 0.0
2018-Mar-29 10:30N 44°44' E 037°47'0 0.0
2018-Mar-29 10:00N 44°44' E 037°47'0 0.0
2018-Mar-29 09:30N 44°44' E 037°47'0 0.0
2018-Mar-29 09:00N 44°44' E 037°47'0 0.0
2018-Mar-29 08:30N 44°44' E 037°47'0 0.0
2018-Mar-29 08:00N 44°44' E 037°47'0 0.0
2018-Mar-29 07:30N 44°44' E 037°47'0 0.0
2018-Mar-29 07:00N 44°44' E 037°47'0 0.0
2018-Mar-29 06:30N 44°44' E 037°47'0 0.0
2018-Mar-29 06:00N 44°44' E 037°47'0 0.0
2018-Mar-29 05:30N 44°44' E 037°47'0 0.0
2018-Mar-29 05:00N 44°44' E 037°47'0 0.0
2018-Mar-29 03:51N 44°44' E 037°47'0 0.0
2018-Mar-29 03:30N 44°44' E 037°47'0 0.0
2018-Mar-29 03:00N 44°44' E 037°47'0 0.0
2018-Mar-29 02:30N 44°44' E 037°47'0 0.0
2018-Mar-29 02:00N 44°44' E 037°47'0 0.0
2018-Mar-29 01:30N 44°44' E 037°47'0 0.0
2018-Mar-29 01:00N 44°44' E 037°47'0 0.0
2018-Mar-29 00:30N 44°44' E 037°47'0 0.0
2018-Mar-29 00:00N 44°44' E 037°47'0 0.0
2018-Mar-28 23:30N 44°44' E 037°47'0 0.0
2018-Mar-28 23:00N 44°44' E 037°47'0 0.0
2018-Mar-28 22:30N 44°44' E 037°47'0 0.0
2018-Mar-28 22:00N 44°44' E 037°47'0 0.0
2018-Mar-28 21:30N 44°44' E 037°47'0 0.0
2018-Mar-28 21:00N 44°44' E 037°47'0 0.0
2018-Mar-28 20:30N 44°44' E 037°47'0 0.0
2018-Mar-28 20:00N 44°44' E 037°47'0 0.0
2018-Mar-28 19:30N 44°44' E 037°47'0 0.0
2018-Mar-28 19:00N 44°44' E 037°47'0 0.0
2018-Mar-28 18:30N 44°44' E 037°47'0 0.0
2018-Mar-28 18:00N 44°44' E 037°47'0 0.0
2018-Mar-28 17:30N 44°44' E 037°47'0 0.0
2018-Mar-28 17:00N 44°44' E 037°47'0 0.0
2018-Mar-28 16:30N 44°44' E 037°47'0 0.0
2018-Mar-28 16:00N 44°44' E 037°47'0 0.0
2018-Mar-28 15:30N 44°44' E 037°47'0 0.1
2018-Mar-28 15:00N 44°44' E 037°47'2 3.8
2018-Mar-28 14:30N 44°42' E 037°49'4 7.5
2018-Mar-28 14:00N 44°39' E 037°51'3 6.7
2018-Mar-28 13:30N 44°35' E 037°52'1 1.9
2018-Mar-28 13:00N 44°35' E 037°52'1 2.2
2018-Mar-28 12:30N 44°34' E 037°53'2 4.4
2018-Mar-28 12:00N 44°32' E 037°55'4 8.5
2018-Mar-28 11:30N 44°29' E 037°59'610.9
2018-Mar-28 10:59N 44°25' E 038°05'1119.7
2018-Mar-28 10:27N 44°36' E 038°01'0 0.1
2018-Mar-28 09:55N 44°35' E 038°01'0 0.0
2018-Mar-28 09:28N 44°36' E 038°01'0 0.0
2018-Mar-28 08:49N 44°35' E 038°01'0 0.0
2018-Mar-28 08:25N 44°36' E 038°01'1432.1
2018-Mar-28 08:00N 44°22' E 038°06'1420.5
2018-Mar-28 07:20N 44°36' E 038°01'  

Dump ship's entire track history